logo dgac
Miércoles 14 de Noviembre del 2018
Buscar por aerodromo o helipuerto
Ingrese nombre de aeródromo, localidad o designador OACI:

Aeródromo: Chile Chico (PUB) (SCCC)

Ubicación: Chile Chico, XI Región, Chile (46º 34' 58'' S, 71º 41' 12'' W) Ver ubicación en el mapa

Pistas

Orientación Dimensión Pendiente Superficie Resistencia APCH THR RWY PAPI
12/30 1200 x 23 0,70 ASPH 20.000 Kg No No No No
Horas de operación HJ
Elevación 326 m / 1070 ft
Otra Información Adm : D.G.A.C.
Uso : PUB
Ubicado : 7 km SE Chile Chico
TEL 672411284

Ad. AFIS Fcia. 127.7 MHZ / radio 5.454 KHz

Otra información ver AIP-Chile Volumen I AD 3.9-3.7-C

CCCM/FCCV Descargar
andera de Chile
Mapa de Chile Chico (PUB) (SCCC)

Último METAR

METAR SCCC 142000Z 28027G40KT 9999 FEW040 15/M03 Q0997

Último TAF

No hay tafs registrados para este aeródromo

Últimas fotos cámaras

Imagen aerodromo Chile Chico (PUB) (SCCC) S-Este tomada el 21-12-2016 01:06:52 Imagen aerodromo Chile Chico (PUB) (SCCC) N-Oeste tomada el 14-11-2018 05:35:21

Último NOTAM

C3567/18 NOTAMN Q)SCTZ/QFALE/IV/NBO/A/000/999/4635S07141W005 A)SCCC B)1811131600 C)1811142359 E)AD OPRG WO AUX PWR

LLegadas a Chile Chico (PUB) (SCCC)

En vuelo

Vuelo Procedencia Hora Despegue Local Hora Arribo Local

Salidas de Chile Chico (PUB) (SCCC)

En vuelo

Vuelo Hacia Hora Despegue Local Hora Arribo Local